sensor_id;sensor_type;location;lat;lon;timestamp;pressure;altitude;pressure_sealevel;temperature;humidity
34243;BME280;20504;43.214;27.920;2023-05-19T00:00:16;100299.06;;;20.00;100.00
34243;BME280;20504;43.214;27.920;2023-05-19T00:02:43;100365.00;;;20.04;100.00
34243;BME280;20504;43.214;27.920;2023-05-19T00:05:10;100314.47;;;19.82;100.00
34243;BME280;20504;43.214;27.920;2023-05-19T00:07:37;100368.53;;;19.96;100.00
34243;BME280;20504;43.214;27.920;2023-05-19T00:10:04;100400.16;;;20.03;100.00
34243;BME280;20504;43.214;27.920;2023-05-19T00:12:29;100416.31;;;20.03;100.00
34243;BME280;20504;43.214;27.920;2023-05-19T00:14:55;100428.59;;;19.97;100.00
34243;BME280;20504;43.214;27.920;2023-05-19T00:17:21;100431.94;;;19.99;100.00
34243;BME280;20504;43.214;27.920;2023-05-19T00:19:47;100428.59;;;19.97;100.00
34243;BME280;20504;43.214;27.920;2023-05-19T00:22:13;100396.03;;;19.82;100.00
34243;BME280;20504;43.214;27.920;2023-05-19T00:24:39;100387.13;;;19.82;100.00
34243;BME280;20504;43.214;27.920;2023-05-19T00:27:04;100422.28;;;19.80;100.00
34243;BME280;20504;43.214;27.920;2023-05-19T00:29:30;100462.84;;;19.87;100.00
34243;BME280;20504;43.214;27.920;2023-05-19T00:31:55;100493.13;;;19.89;100.00
34243;BME280;20504;43.214;27.920;2023-05-19T00:34:21;100523.44;;;19.91;100.00
34243;BME280;20504;43.214;27.920;2023-05-19T00:36:46;100513.44;;;19.83;100.00
34243;BME280;20504;43.214;27.920;2023-05-19T00:39:12;100540.03;;;19.86;100.00
34243;BME280;20504;43.214;27.920;2023-05-19T00:41:37;100548.28;;;19.85;100.00
34243;BME280;20504;43.214;27.920;2023-05-19T00:44:03;100570.13;;;19.82;100.00
34243;BME280;20504;43.214;27.920;2023-05-19T00:46:28;100591.16;;;19.86;100.00
34243;BME280;20504;43.214;27.920;2023-05-19T00:48:54;100581.38;;;19.77;100.00
34243;BME280;20504;43.214;27.920;2023-05-19T00:51:21;100567.66;;;19.71;100.00
34243;BME280;20504;43.214;27.920;2023-05-19T00:53:49;100626.78;;;19.80;100.00
34243;BME280;20504;43.214;27.920;2023-05-19T00:56:16;100670.22;;;19.85;100.00
34243;BME280;20504;43.214;27.920;2023-05-19T00:58:43;100717.66;;;19.86;100.00
34243;BME280;20504;43.214;27.920;2023-05-19T01:01:08;100586.09;;;19.57;100.00
34243;BME280;20504;43.214;27.920;2023-05-19T01:03:38;100716.44;;;19.81;100.00
34243;BME280;20504;43.214;27.920;2023-05-19T01:06:05;100789.19;;;19.89;100.00
34243;BME280;20504;43.214;27.920;2023-05-19T01:08:36;100767.13;;;19.85;100.00
34243;BME280;20504;43.214;27.920;2023-05-19T01:11:03;100791.19;;;19.87;100.00
34243;BME280;20504;43.214;27.920;2023-05-19T01:13:29;100746.19;;;19.79;100.00
34243;BME280;20504;43.214;27.920;2023-05-19T01:16:11;100652.72;;;19.63;100.00
34243;BME280;20504;43.214;27.920;2023-05-19T01:21:46;100482.56;;;19.26;100.00
34243;BME280;20504;43.214;27.920;2023-05-19T01:30:28;100340.16;;;19.34;100.00
34243;BME280;20504;43.214;27.920;2023-05-19T01:32:58;100326.16;;;19.30;100.00
34243;BME280;20504;43.214;27.920;2023-05-19T01:35:25;100293.56;;;19.33;100.00
34243;BME280;20504;43.214;27.920;2023-05-19T01:37:55;100319.81;;;19.40;100.00
34243;BME280;20504;43.214;27.920;2023-05-19T01:40:22;100240.59;;;19.26;100.00
34243;BME280;20504;43.214;27.920;2023-05-19T01:42:51;100192.38;;;19.24;100.00
34243;BME280;20504;43.214;27.920;2023-05-19T01:45:18;100175.06;;;19.27;100.00
34243;BME280;20504;43.214;27.920;2023-05-19T01:47:47;100074.91;;;19.09;100.00
34243;BME280;20504;43.214;27.920;2023-05-19T01:50:13;100073.72;;;19.11;100.00
34243;BME280;20504;43.214;27.920;2023-05-19T01:52:39;100014.25;;;19.06;100.00
34243;BME280;20504;43.214;27.920;2023-05-19T01:55:07;99972.44;;;19.03;100.00
34243;BME280;20504;43.214;27.920;2023-05-19T02:03:36;99935.81;;;19.11;100.00
34243;BME280;20504;43.214;27.920;2023-05-19T02:09:01;99927.59;;;19.20;100.00
34243;BME280;20504;43.214;27.920;2023-05-19T02:11:43;99949.75;;;19.30;100.00
34243;BME280;20504;43.214;27.920;2023-05-19T02:14:20;99969.75;;;19.36;100.00
34243;BME280;20504;43.214;27.920;2023-05-19T02:16:46;99951.13;;;19.34;100.00
34243;BME280;20504;43.214;27.920;2023-05-19T02:19:26;99985.03;;;19.44;100.00
34243;BME280;20504;43.214;27.920;2023-05-19T02:21:52;99925.38;;;19.32;100.00
34243;BME280;20504;43.214;27.920;2023-05-19T02:24:18;99905.06;;;19.29;100.00
34243;BME280;20504;43.214;27.920;2023-05-19T02:26:51;99941.88;;;19.37;100.00
34243;BME280;20504;43.214;27.920;2023-05-19T02:29:16;99977.81;;;19.44;100.00
34243;BME280;20504;43.214;27.920;2023-05-19T02:31:42;99959.34;;;19.41;100.00
34243;BME280;20504;43.214;27.920;2023-05-19T02:34:07;99946.41;;;19.36;100.00
34243;BME280;20504;43.214;27.920;2023-05-19T02:36:33;99925.38;;;19.32;100.00
34243;BME280;20504;43.214;27.920;2023-05-19T02:39:01;99969.41;;;19.39;100.00
34243;BME280;20504;43.214;27.920;2023-05-19T02:41:27;99950.28;;;19.34;100.00
34243;BME280;20504;43.214;27.920;2023-05-19T02:43:52;99907.91;;;19.28;100.00
34243;BME280;20504;43.214;27.920;2023-05-19T02:46:18;99831.50;;;19.06;100.00
34243;BME280;20504;43.214;27.920;2023-05-19T02:48:43;99983.38;;;19.43;100.00
34243;BME280;20504;43.214;27.920;2023-05-19T02:51:09;100035.00;;;19.54;100.00
34243;BME280;20504;43.214;27.920;2023-05-19T02:53:34;99973.28;;;19.36;100.00
34243;BME280;20504;43.214;27.920;2023-05-19T02:56:00;99980.16;;;19.31;100.00
34243;BME280;20504;43.214;27.920;2023-05-19T02:58:25;100017.81;;;19.39;100.00
34243;BME280;20504;43.214;27.920;2023-05-19T03:00:51;100057.47;;;19.45;100.00
34243;BME280;20504;43.214;27.920;2023-05-19T03:03:16;100130.81;;;19.55;100.00
34243;BME280;20504;43.214;27.920;2023-05-19T03:05:42;100127.78;;;19.58;100.00
34243;BME280;20504;43.214;27.920;2023-05-19T03:08:07;100175.38;;;19.66;100.00
34243;BME280;20504;43.214;27.920;2023-05-19T03:10:34;100120.84;;;19.40;100.00
34243;BME280;20504;43.214;27.920;2023-05-19T03:12:59;100132.78;;;19.45;100.00
34243;BME280;20504;43.214;27.920;2023-05-19T03:15:25;100151.94;;;19.50;100.00
34243;BME280;20504;43.214;27.920;2023-05-19T03:17:50;100185.63;;;19.54;100.00
34243;BME280;20504;43.214;27.920;2023-05-19T03:20:16;100223.78;;;19.58;100.00
34243;BME280;20504;43.214;27.920;2023-05-19T03:22:42;100148.91;;;19.45;100.00
34243;BME280;20504;43.214;27.920;2023-05-19T03:25:08;100217.56;;;19.57;100.00
34243;BME280;20504;43.214;27.920;2023-05-19T03:27:34;100308.53;;;19.70;100.00
34243;BME280;20504;43.214;27.920;2023-05-19T03:29:59;100326.84;;;19.66;100.00
34243;BME280;20504;43.214;27.920;2023-05-19T03:32:25;100387.47;;;19.79;100.00
34243;BME280;20504;43.214;27.920;2023-05-19T03:34:50;100445.00;;;19.86;100.00
34243;BME280;20504;43.214;27.920;2023-05-19T03:37:16;100462.22;;;19.93;100.00
34243;BME280;20504;43.214;27.920;2023-05-19T03:39:41;100531.91;;;20.04;100.00
34243;BME280;20504;43.214;27.920;2023-05-19T03:42:07;100621.53;;;20.22;100.00
34243;BME280;20504;43.214;27.920;2023-05-19T03:44:32;100657.91;;;20.26;100.00
34243;BME280;20504;43.214;27.920;2023-05-19T03:46:58;100522.69;;;19.81;100.00
34243;BME280;20504;43.214;27.920;2023-05-19T03:49:23;100656.50;;;20.14;100.00
34243;BME280;20504;43.214;27.920;2023-05-19T03:51:49;100727.81;;;20.28;100.00
34243;BME280;20504;43.214;27.920;2023-05-19T03:54:14;100812.72;;;20.40;100.00
34243;BME280;20504;43.214;27.920;2023-05-19T03:56:41;100788.81;;;20.37;100.00
34243;BME280;20504;43.214;27.920;2023-05-19T03:59:07;100798.88;;;20.35;100.00
34243;BME280;20504;43.214;27.920;2023-05-19T04:01:34;100693.50;;;20.12;100.00
34243;BME280;20504;43.214;27.920;2023-05-19T04:04:00;100730.88;;;20.15;100.00
34243;BME280;20504;43.214;27.920;2023-05-19T04:06:26;100875.50;;;20.50;100.00
34243;BME280;20504;43.214;27.920;2023-05-19T04:08:51;100918.44;;;20.52;100.00
34243;BME280;20504;43.214;27.920;2023-05-19T04:11:17;100946.25;;;20.52;100.00
34243;BME280;20504;43.214;27.920;2023-05-19T04:13:44;101030.47;;;20.54;100.00
34243;BME280;20504;43.214;27.920;2023-05-19T04:16:10;101142.69;;;20.73;100.00
34243;BME280;20504;43.214;27.920;2023-05-19T04:18:35;101223.22;;;20.86;100.00
34243;BME280;20504;43.214;27.920;2023-05-19T04:21:01;101284.78;;;20.91;100.00
34243;BME280;20504;43.214;27.920;2023-05-19T04:23:26;101260.00;;;20.77;100.00
34243;BME280;20504;43.214;27.920;2023-05-19T04:25:52;101409.94;;;20.98;100.00
34243;BME280;20504;43.214;27.920;2023-05-19T04:28:18;101439.19;;;20.93;100.00
34243;BME280;20504;43.214;27.920;2023-05-19T04:30:44;101531.72;;;21.03;100.00
34243;BME280;20504;43.214;27.920;2023-05-19T04:33:11;101545.78;;;21.06;100.00
34243;BME280;20504;43.214;27.920;2023-05-19T04:35:37;101636.22;;;21.20;100.00
34243;BME280;20504;43.214;27.920;2023-05-19T04:38:04;101782.25;;;21.36;100.00
34243;BME280;20504;43.214;27.920;2023-05-19T04:40:30;101924.09;;;21.60;100.00
34243;BME280;20504;43.214;27.920;2023-05-19T04:42:56;101907.00;;;21.50;100.00
34243;BME280;20504;43.214;27.920;2023-05-19T04:45:22;101845.44;;;21.34;100.00
34243;BME280;20504;43.214;27.920;2023-05-19T04:47:50;101952.44;;;21.44;100.00
34243;BME280;20504;43.214;27.920;2023-05-19T04:50:16;102005.34;;;21.57;100.00
34243;BME280;20504;43.214;27.920;2023-05-19T04:52:42;102103.91;;;21.72;100.00
34243;BME280;20504;43.214;27.920;2023-05-19T04:55:09;102089.81;;;21.68;100.00
34243;BME280;20504;43.214;27.920;2023-05-19T04:57:35;102128.06;;;21.73;100.00
34243;BME280;20504;43.214;27.920;2023-05-19T05:00:02;102192.84;;;21.85;100.00
34243;BME280;20504;43.214;27.920;2023-05-19T05:02:33;102241.19;;;21.88;100.00
34243;BME280;20504;43.214;27.920;2023-05-19T05:04:58;102225.50;;;21.82;100.00
34243;BME280;20504;43.214;27.920;2023-05-19T05:07:24;102344.38;;;22.02;100.00
34243;BME280;20504;43.214;27.920;2023-05-19T05:09:50;102436.47;;;22.22;100.00
34243;BME280;20504;43.214;27.920;2023-05-19T05:12:17;102517.75;;;22.30;100.00
34243;BME280;20504;43.214;27.920;2023-05-19T05:14:43;102542.47;;;22.25;100.00
34243;BME280;20504;43.214;27.920;2023-05-19T05:17:10;102617.56;;;22.33;100.00
34243;BME280;20504;43.214;27.920;2023-05-19T05:19:36;102706.63;;;22.46;100.00
34243;BME280;20504;43.214;27.920;2023-05-19T05:22:02;102988.16;;;22.89;100.00
34243;BME280;20504;43.214;27.920;2023-05-19T05:24:30;103030.56;;;22.88;100.00
34243;BME280;20504;43.214;27.920;2023-05-19T05:26:56;103196.09;;;23.06;100.00
34243;BME280;20504;43.214;27.920;2023-05-19T05:29:23;103330.41;;;23.20;100.00
34243;BME280;20504;43.214;27.920;2023-05-19T05:31:48;103364.44;;;23.11;100.00
34243;BME280;20504;43.214;27.920;2023-05-19T05:34:14;103420.31;;;23.12;100.00
34243;BME280;20504;43.214;27.920;2023-05-19T05:36:39;103613.66;;;23.48;100.00
34243;BME280;20504;43.214;27.920;2023-05-19T05:39:05;103737.34;;;23.62;100.00
34243;BME280;20504;43.214;27.920;2023-05-19T05:41:30;103865.84;;;23.84;100.00
34243;BME280;20504;43.214;27.920;2023-05-19T05:44:02;103920.59;;;23.90;100.00
34243;BME280;20504;43.214;27.920;2023-05-19T05:46:28;103917.13;;;23.88;100.00
34243;BME280;20504;43.214;27.920;2023-05-19T05:48:54;103953.13;;;23.90;100.00
34243;BME280;20504;43.214;27.920;2023-05-19T05:51:23;104200.00;;;24.29;100.00
34243;BME280;20504;43.214;27.920;2023-05-19T05:53:52;104190.50;;;24.22;100.00
34243;BME280;20504;43.214;27.920;2023-05-19T05:56:18;104296.22;;;24.38;100.00
34243;BME280;20504;43.214;27.920;2023-05-19T05:58:44;104441.00;;;24.65;100.00
34243;BME280;20504;43.214;27.920;2023-05-19T06:01:10;104487.94;;;24.67;100.00
34243;BME280;20504;43.214;27.920;2023-05-19T06:03:39;104598.00;;;24.87;100.00
34243;BME280;20504;43.214;27.920;2023-05-19T06:06:07;104492.28;;;24.70;100.00
34243;BME280;20504;43.214;27.920;2023-05-19T06:08:35;104638.56;;;24.90;100.00
34243;BME280;20504;43.214;27.920;2023-05-19T06:11:00;104670.97;;;24.93;100.00
34243;BME280;20504;43.214;27.920;2023-05-19T06:13:33;104597.22;;;24.85;100.00
34243;BME280;20504;43.214;27.920;2023-05-19T06:15:58;104667.28;;;24.94;100.00
34243;BME280;20504;43.214;27.920;2023-05-19T06:18:23;104799.13;;;25.16;100.00
34243;BME280;20504;43.214;27.920;2023-05-19T06:20:49;104778.47;;;25.13;100.00
34243;BME280;20504;43.214;27.920;2023-05-19T06:23:15;104795.63;;;25.14;100.00
34243;BME280;20504;43.214;27.920;2023-05-19T06:25:40;104699.59;;;24.99;100.00
34243;BME280;20504;43.214;27.920;2023-05-19T06:28:06;104877.47;;;25.23;100.00
34243;BME280;20504;43.214;27.920;2023-05-19T06:30:31;104946.16;;;25.41;100.00
34243;BME280;20504;43.214;27.920;2023-05-19T06:32:57;105008.16;;;25.50;100.00
34243;BME280;20504;43.214;27.920;2023-05-19T06:35:22;105106.88;;;25.68;100.00
34243;BME280;20504;43.214;27.920;2023-05-19T06:37:48;105168.78;;;25.79;100.00
34243;BME280;20504;43.214;27.920;2023-05-19T06:40:13;105174.94;;;25.82;100.00
34243;BME280;20504;43.214;27.920;2023-05-19T06:42:39;105278.88;;;26.05;100.00
34243;BME280;20504;43.214;27.920;2023-05-19T06:45:05;105420.16;;;26.25;100.00
34243;BME280;20504;43.214;27.920;2023-05-19T06:47:30;105407.50;;;26.24;100.00
34243;BME280;20504;43.214;27.920;2023-05-19T06:49:56;105388.69;;;26.19;100.00
34243;BME280;20504;43.214;27.920;2023-05-19T06:52:22;105427.19;;;26.29;100.00
34243;BME280;20504;43.214;27.920;2023-05-19T06:54:48;105644.91;;;26.65;100.00
34243;BME280;20504;43.214;27.920;2023-05-19T06:57:14;105659.50;;;26.64;100.00
34243;BME280;20504;43.214;27.920;2023-05-19T06:59:40;105753.88;;;26.82;100.00
34243;BME280;20504;43.214;27.920;2023-05-19T07:02:07;105750.19;;;26.83;100.00
34243;BME280;20504;43.214;27.920;2023-05-19T07:04:33;105664.25;;;26.61;100.00
34243;BME280;20504;43.214;27.920;2023-05-19T07:06:59;105731.22;;;26.82;100.00
34243;BME280;20504;43.214;27.920;2023-05-19T07:09:27;105853.63;;;27.04;100.00
34243;BME280;20504;43.214;27.920;2023-05-19T07:11:53;106056.25;;;27.40;100.00
34243;BME280;20504;43.214;27.920;2023-05-19T07:14:20;106079.81;;;27.41;100.00
34243;BME280;20504;43.214;27.920;2023-05-19T07:16:45;106087.84;;;27.44;100.00
34243;BME280;20504;43.214;27.920;2023-05-19T07:19:11;106002.91;;;27.35;100.00
34243;BME280;20504;43.214;27.920;2023-05-19T07:21:36;105797.56;;;26.98;100.00
34243;BME280;20504;43.214;27.920;2023-05-19T07:24:02;105854.50;;;27.04;100.00
34243;BME280;20504;43.214;27.920;2023-05-19T07:26:28;105997.44;;;27.35;100.00
34243;BME280;20504;43.214;27.920;2023-05-19T07:28:53;105897.97;;;27.07;100.00
34243;BME280;20504;43.214;27.920;2023-05-19T07:31:19;105965.09;;;27.27;100.00
34243;BME280;20504;43.214;27.920;2023-05-19T07:33:44;106180.59;;;27.63;100.00
34243;BME280;20504;43.214;27.920;2023-05-19T07:36:10;106171.31;;;27.67;100.00
34243;BME280;20504;43.214;27.920;2023-05-19T07:38:35;106227.28;;;27.76;100.00
34243;BME280;20504;43.214;27.920;2023-05-19T07:41:01;106127.28;;;27.56;100.00
34243;BME280;20504;43.214;27.920;2023-05-19T07:43:28;106266.94;;;27.83;100.00
34243;BME280;20504;43.214;27.920;2023-05-19T07:45:54;106393.47;;;28.01;100.00
34243;BME280;20504;43.214;27.920;2023-05-19T07:48:23;106526.03;;;28.28;100.00
34243;BME280;20504;43.214;27.920;2023-05-19T07:50:50;106597.16;;;28.46;100.00
34243;BME280;20504;43.214;27.920;2023-05-19T07:53:15;106583.53;;;28.44;100.00
34243;BME280;20504;43.214;27.920;2023-05-19T07:55:41;106689.34;;;28.61;100.00
34243;BME280;20504;43.214;27.920;2023-05-19T07:58:06;106813.19;;;28.83;100.00
34243;BME280;20504;43.214;27.920;2023-05-19T08:00:32;106886.31;;;28.99;100.00
34243;BME280;20504;43.214;27.920;2023-05-19T08:02:58;106800.50;;;28.81;100.00
34243;BME280;20504;43.214;27.920;2023-05-19T08:05:24;106859.88;;;28.99;100.00
34243;BME280;20504;43.214;27.920;2023-05-19T08:07:50;106959.25;;;29.20;100.00
34243;BME280;20504;43.214;27.920;2023-05-19T08:10:16;106859.06;;;28.97;100.00
34243;BME280;20504;43.214;27.920;2023-05-19T08:12:41;106819.81;;;28.98;100.00
34243;BME280;20504;43.214;27.920;2023-05-19T08:15:08;107111.97;;;29.52;100.00
34243;BME280;20504;43.214;27.920;2023-05-19T08:17:36;107011.56;;;29.33;100.00
34243;BME280;20504;43.214;27.920;2023-05-19T08:20:02;107101.75;;;29.58;100.00
34243;BME280;20504;43.214;27.920;2023-05-19T08:22:29;107193.81;;;29.80;100.00
34243;BME280;20504;43.214;27.920;2023-05-19T08:24:57;107023.63;;;29.49;100.00
34243;BME280;20504;43.214;27.920;2023-05-19T08:27:23;107085.84;;;29.66;100.00
34243;BME280;20504;43.214;27.920;2023-05-19T08:29:48;107344.84;;;30.15;100.00
34243;BME280;20504;43.214;27.920;2023-05-19T08:32:14;107135.63;;;29.75;100.00
34243;BME280;20504;43.214;27.920;2023-05-19T08:34:40;107206.03;;;29.94;100.00
34243;BME280;20504;43.214;27.920;2023-05-19T08:37:05;107018.59;;;29.60;100.00
34243;BME280;20504;43.214;27.920;2023-05-19T08:39:31;107014.25;;;29.54;100.00
34243;BME280;20504;43.214;27.920;2023-05-19T08:42:00;106872.44;;;29.23;100.00
34243;BME280;20504;43.214;27.920;2023-05-19T08:44:27;106959.09;;;29.43;100.00
34243;BME280;20504;43.214;27.920;2023-05-19T08:46:53;106935.50;;;29.41;100.00
34243;BME280;20504;43.214;27.920;2023-05-19T08:49:22;106929.06;;;29.42;100.00
34243;BME280;20504;43.214;27.920;2023-05-19T08:52:05;106975.41;;;29.46;100.00
34243;BME280;20504;43.214;27.920;2023-05-19T08:54:48;107028.72;;;29.58;100.00
34243;BME280;20504;43.214;27.920;2023-05-19T08:57:17;106990.78;;;29.49;100.00
34243;BME280;20504;43.214;27.920;2023-05-19T08:59:43;107136.16;;;29.83;100.00
34243;BME280;20504;43.214;27.920;2023-05-19T09:02:10;107262.22;;;30.04;100.00
34243;BME280;20504;43.214;27.920;2023-05-19T09:04:38;107293.28;;;30.03;100.00
34243;BME280;20504;43.214;27.920;2023-05-19T09:07:04;106934.47;;;29.43;100.00
34243;BME280;20504;43.214;27.920;2023-05-19T09:09:30;106938.97;;;29.44;100.00
34243;BME280;20504;43.214;27.920;2023-05-19T09:11:56;107050.41;;;29.63;100.00
34243;BME280;20504;43.214;27.920;2023-05-19T09:14:22;107130.16;;;29.75;100.00
34243;BME280;20504;43.214;27.920;2023-05-19T09:16:48;107050.19;;;29.67;100.00
34243;BME280;20504;43.214;27.920;2023-05-19T09:19:16;107255.78;;;30.05;100.00
34243;BME280;20504;43.214;27.920;2023-05-19T09:21:42;107288.25;;;30.14;100.00
34243;BME280;20504;43.214;27.920;2023-05-19T09:24:09;107044.72;;;29.67;100.00
34243;BME280;20504;43.214;27.920;2023-05-19T09:26:40;106944.41;;;29.46;100.00
34243;BME280;20504;43.214;27.920;2023-05-19T09:29:15;107101.91;;;29.73;100.00
34243;BME280;20504;43.214;27.920;2023-05-19T09:31:52;107124.59;;;29.77;100.00
34243;BME280;20504;43.214;27.920;2023-05-19T09:34:19;107147.25;;;29.80;100.00
34243;BME280;20504;43.214;27.920;2023-05-19T09:36:47;107081.13;;;29.69;100.00
34243;BME280;20504;43.214;27.920;2023-05-19T09:39:21;107287.78;;;30.03;100.00
34243;BME280;20504;43.214;27.920;2023-05-19T09:41:53;107367.72;;;30.14;100.00
34243;BME280;20504;43.214;27.920;2023-05-19T09:44:23;107453.69;;;30.33;100.00
34243;BME280;20504;43.214;27.920;2023-05-19T09:46:53;107243.41;;;29.95;100.00
34243;BME280;20504;43.214;27.920;2023-05-19T09:49:24;107161.16;;;29.76;100.00
34243;BME280;20504;43.214;27.920;2023-05-19T09:51:52;107271.69;;;29.95;100.00
34243;BME280;20504;43.214;27.920;2023-05-19T09:54:19;106867.13;;;29.20;100.00
34243;BME280;20504;43.214;27.920;2023-05-19T09:56:50;106771.59;;;28.95;100.00
34243;BME280;20504;43.214;27.920;2023-05-19T09:59:18;106768.88;;;28.95;100.00
34243;BME280;20504;43.214;27.920;2023-05-19T10:01:44;106715.72;;;28.82;100.00
34243;BME280;20504;43.214;27.920;2023-05-19T10:04:12;106669.50;;;28.76;100.00
34243;BME280;20504;43.214;27.920;2023-05-19T10:06:40;106866.19;;;29.01;100.00
34243;BME280;20504;43.214;27.920;2023-05-19T10:09:06;106981.97;;;29.22;100.00
34243;BME280;20504;43.214;27.920;2023-05-19T10:11:32;107121.47;;;29.44;100.00
34243;BME280;20504;43.214;27.920;2023-05-19T10:13:57;106834.81;;;28.89;100.00
34243;BME280;20504;43.214;27.920;2023-05-19T10:16:25;106974.13;;;29.13;100.00
34243;BME280;20504;43.214;27.920;2023-05-19T10:18:53;107154.50;;;29.39;100.00
34243;BME280;20504;43.214;27.920;2023-05-19T10:21:19;107201.34;;;29.53;100.00
34243;BME280;20504;43.214;27.920;2023-05-19T10:23:45;107388.06;;;29.85;100.00
34243;BME280;20504;43.214;27.920;2023-05-19T10:26:11;107375.34;;;29.84;100.00
34243;BME280;20504;43.214;27.920;2023-05-19T10:28:38;107432.47;;;29.93;100.00
34243;BME280;20504;43.214;27.920;2023-05-19T10:31:07;107681.84;;;30.40;100.00
34243;BME280;20504;43.214;27.920;2023-05-19T10:36:21;107598.22;;;30.28;100.00
34243;BME280;20504;43.214;27.920;2023-05-19T10:44:52;107979.53;;;30.98;100.00
34243;BME280;20504;43.214;27.920;2023-05-19T10:47:26;107956.09;;;30.90;100.00
34243;BME280;20504;43.214;27.920;2023-05-19T10:49:55;108108.63;;;31.22;100.00
34243;BME280;20504;43.214;27.920;2023-05-19T10:52:22;108316.75;;;31.65;100.00
34243;BME280;20504;43.214;27.920;2023-05-19T10:54:49;108272.09;;;31.58;100.00
34243;BME280;20504;43.214;27.920;2023-05-19T10:57:16;108421.34;;;31.87;100.00
34243;BME280;20504;43.214;27.920;2023-05-19T10:59:42;108273.81;;;31.61;100.00
34243;BME280;20504;43.214;27.920;2023-05-19T11:02:40;108359.31;;;31.80;100.00
34243;BME280;20504;43.214;27.920;2023-05-19T11:05:15;108522.25;;;32.10;100.00
34243;BME280;20504;43.214;27.920;2023-05-19T11:07:53;108562.38;;;32.17;100.00
34243;BME280;20504;43.214;27.920;2023-05-19T11:10:23;108465.72;;;32.03;100.00
34243;BME280;20504;43.214;27.920;2023-05-19T11:12:49;108459.38;;;32.01;100.00
34243;BME280;20504;43.214;27.920;2023-05-19T11:15:15;108169.97;;;31.47;100.00
34243;BME280;20504;43.214;27.920;2023-05-19T11:17:41;108448.38;;;32.01;100.00
34243;BME280;20504;43.214;27.920;2023-05-19T11:20:08;108441.03;;;32.01;100.00
34243;BME280;20504;43.214;27.920;2023-05-19T11:25:40;108606.88;;;32.30;100.00
34243;BME280;20504;43.214;27.920;2023-05-19T11:28:06;108523.00;;;32.15;100.00
34243;BME280;20504;43.214;27.920;2023-05-19T11:30:32;108490.13;;;32.12;100.00
34243;BME280;20504;43.214;27.920;2023-05-19T11:32:58;108757.13;;;32.62;100.00
34243;BME280;20504;43.214;27.920;2023-05-19T11:35:24;108785.28;;;32.70;100.00
34243;BME280;20504;43.214;27.920;2023-05-19T11:37:53;108927.66;;;32.96;100.00
34243;BME280;20504;43.214;27.920;2023-05-19T11:40:20;109234.44;;;33.54;100.00
34243;BME280;20504;43.214;27.920;2023-05-19T11:42:45;109615.75;;;34.27;100.00
34243;BME280;20504;43.214;27.920;2023-05-19T11:45:11;109668.66;;;34.44;100.00
34243;BME280;20504;43.214;27.920;2023-05-19T11:47:37;109698.03;;;34.47;100.00
34243;BME280;20504;43.214;27.920;2023-05-19T11:50:02;109249.63;;;33.68;100.00
34243;BME280;20504;43.214;27.920;2023-05-19T11:52:28;109842.66;;;34.77;100.00
34243;BME280;20504;43.214;27.920;2023-05-19T11:54:54;109998.31;;;35.14;100.00
34243;BME280;20504;43.214;27.920;2023-05-19T11:57:21;110251.44;;;35.65;100.00
34243;BME280;20504;43.214;27.920;2023-05-19T11:59:46;110133.28;;;35.31;100.00
34243;BME280;20504;43.214;27.920;2023-05-19T12:02:18;110388.19;;;35.95;100.00
34243;BME280;20504;43.214;27.920;2023-05-19T12:04:45;109916.56;;;35.04;100.00
34243;BME280;20504;43.214;27.920;2023-05-19T12:07:11;110714.38;;;36.61;100.00
34243;BME280;20504;43.214;27.920;2023-05-19T12:09:38;110333.03;;;35.86;100.00
34243;BME280;20504;43.214;27.920;2023-05-19T12:12:03;110532.31;;;36.26;100.00
34243;BME280;20504;43.214;27.920;2023-05-19T12:14:29;110864.31;;;36.93;100.00
34243;BME280;20504;43.214;27.920;2023-05-19T12:16:55;110255.84;;;35.73;100.00
34243;BME280;20504;43.214;27.920;2023-05-19T12:19:22;110759.38;;;36.74;100.00
34243;BME280;20504;43.214;27.920;2023-05-19T12:21:50;111088.06;;;37.39;100.00
34243;BME280;20504;43.214;27.920;2023-05-19T12:24:17;111337.75;;;37.93;100.00
34243;BME280;20504;43.214;27.920;2023-05-19T12:26:42;111558.41;;;38.32;100.00
34243;BME280;20504;43.214;27.920;2023-05-19T12:29:08;111186.50;;;37.66;100.00
34243;BME280;20504;43.214;27.920;2023-05-19T12:31:34;111557.25;;;38.45;100.00
34243;BME280;20504;43.214;27.920;2023-05-19T12:33:59;111755.88;;;38.83;100.00
34243;BME280;20504;43.214;27.920;2023-05-19T12:36:26;111098.78;;;37.57;100.00
34243;BME280;20504;43.214;27.920;2023-05-19T12:38:55;111373.50;;;38.14;100.00
34243;BME280;20504;43.214;27.920;2023-05-19T12:41:23;111659.63;;;38.76;100.00
34243;BME280;20504;43.214;27.920;2023-05-19T12:43:49;111803.69;;;39.11;100.00
34243;BME280;20504;43.214;27.920;2023-05-19T12:46:14;111620.53;;;38.87;100.00
34243;BME280;20504;43.214;27.920;2023-05-19T12:48:44;112091.84;;;39.95;100.00
34243;BME280;20504;43.214;27.920;2023-05-19T12:51:15;112385.22;;;40.77;100.00
34243;BME280;20504;43.214;27.920;2023-05-19T12:53:40;112083.19;;;40.16;100.00
34243;BME280;20504;43.214;27.920;2023-05-19T12:56:15;112070.97;;;40.25;100.00
34243;BME280;20504;43.214;27.920;2023-05-19T12:58:41;111912.72;;;39.91;100.00